ASN logo
 
Estado:Preliminar - Oficial
Fecha:martes 18 septiembre 2018
Hora:10:10
Tipo:Silhouette image of generic H25B model; specific model in this crash may look slightly different
British Aerospace BAe-125-700A
Operador:Aviation Leasing Group Inc.
Registración: N109BG
Numéro de série: 257157/NA0310
Año de Construcción: 1982
Motores: 2 Garrett TFE731
Tripulación:Fatalidades: 0 / Ocupantes: 1
Pasajeros:Fatalidades: 0 / Ocupantes: 4
Total:Fatalidades: 0 / Ocupantes: 5
Daños en la Aeronave: Considerable
Consecuencias: Repaired
Ubicación:Santa Fe Airport, NM (SAF) (   Estados Unidos de América)
Fase: Aterrizaje (LDG)
Naturaleza:Vuelo Doméstico No Programado
Aeropuerto de Salida:Los Angeles International Airport, CA (LAX/KLAX), Estados Unidos de América
Aeropuerto de Llegada:Santa Fe Airport, NM (SAF/KSAF), Estados Unidos de América
Descripción:
A Hawker Siddeley HS125-700A, N109BG, veered to the right during landing roll at the Santa Fe Municipal Airport, New Mexico, USA. The pilot subsequently tried to correct to the runway centerline; however, the airplane came to rest in the grass adjacent to the runway. The pilot and four passengers were not injured; the airplane sustained substantial damage.

The pilot reported that during the landing roll, he attempted to use the nose wheel tiller to steer the airplane on the ground; however, the tiller was locked and the pilot was unable to twist the tiller counterclockwise. The pilot was able to lift the nose wheel off the runway to regain control and the airplane came to rest in the nearby grassy area.

Accident investigation:
Investigating agency: NTSB
Status: Investigation ongoing
Accident number: WPR18LA270
Language: English

Fuentes:
» NTSB

METAR Weather report:
15:53 UTC / 09:53 local time:
KSAF 181553Z 00000KT 10SM CLR 22/09 A3022 RMK AO2 SLP127 T02220094

16:28 UTC / 10:28 local time:
KSAF 181628Z 19003KT 10SM CLR 23/09 A3022 RMK AO2 T02330094


Fotos

Add your photo of this accident or aircraft

Map
This map shows the airport of departure and the intended destination of the flight. The line between the airports does not display the exact flight path.
Distance from Los Angeles International Airport, CA to Santa Fe Airport, NM as the crow flies is 1132 km (708 miles).

This information is not presented as the Flight Safety Foundation or the Aviation Safety Network’s opinion as to the cause of the accident. It is preliminary and is based on the facts as they are known at this time.
languages: languages

Share

GAPPRE
GAPPRE
Global Action Plan for the Prevention of Runway Excursions (GAPPRE): recommendations and guidance material to prevent runway excursions

The Aviation Safety Network is an exclusive service provided by:
Quick Links:

CONNECT WITH US: FSF Facebook FSF Twitter FSF Youtube FSF LinkedIn FSF Instagram

©2022 Flight Safety Foundation

701 N. Fairfax St., Ste. 250
Alexandria, Virginia 22314
www.FlightSafety.org